createdAt,value
2023-05-10T00:00:16.284Z,100888.91
2023-05-10T00:00:46.818Z,100891.60
2023-05-10T00:01:17.325Z,100885.30
2023-05-10T00:01:47.796Z,100886.25
2023-05-10T00:02:18.251Z,100887.66
2023-05-10T00:02:48.759Z,100886.00
2023-05-10T00:03:19.312Z,100885.69
2023-05-10T00:03:49.813Z,100885.77
2023-05-10T00:04:20.355Z,100892.44
2023-05-10T00:04:50.739Z,100883.98
2023-05-10T00:05:21.170Z,100888.91
2023-05-10T00:05:51.583Z,100886.25
2023-05-10T00:06:22.004Z,100889.44
2023-05-10T00:06:52.440Z,100887.62
2023-05-10T00:07:22.871Z,100884.28
2023-05-10T00:07:53.301Z,100889.30
2023-05-10T00:08:23.719Z,100885.11
2023-05-10T00:08:54.144Z,100883.70
2023-05-10T00:09:24.583Z,100884.51
2023-05-10T00:09:54.991Z,100883.69
2023-05-10T00:10:25.405Z,100882.59
2023-05-10T00:10:55.828Z,100883.92
2023-05-10T00:11:26.262Z,100883.20
2023-05-10T00:11:56.702Z,100888.97
2023-05-10T00:12:27.129Z,100886.31
2023-05-10T00:12:57.574Z,100884.03
2023-05-10T00:13:28.106Z,100887.85
2023-05-10T00:13:58.572Z,100885.08
2023-05-10T00:14:28.988Z,100882.56
2023-05-10T00:14:59.410Z,100886.42
2023-05-10T00:15:29.835Z,100881.55
2023-05-10T00:16:00.326Z,100882.62
2023-05-10T00:16:30.786Z,100885.38
2023-05-10T00:17:01.295Z,100883.61
2023-05-10T00:17:31.723Z,100880.94
2023-05-10T00:18:02.143Z,100878.20
2023-05-10T00:18:32.550Z,100882.73
2023-05-10T00:19:02.977Z,100880.55
2023-05-10T00:19:33.401Z,100883.09
2023-05-10T00:20:03.823Z,100880.89
2023-05-10T00:20:34.237Z,100874.67
2023-05-10T00:21:04.679Z,100877.37
2023-05-10T00:21:35.121Z,100879.34
2023-05-10T00:22:05.530Z,100875.37
2023-05-10T00:22:35.950Z,100871.66
2023-05-10T00:23:06.386Z,100869.38
2023-05-10T00:23:36.807Z,100872.36
2023-05-10T00:24:07.233Z,100868.40
2023-05-10T00:24:37.688Z,100867.82
2023-05-10T00:25:08.088Z,100876.14
2023-05-10T00:25:38.507Z,100870.86
2023-05-10T00:26:08.953Z,100869.72
2023-05-10T00:26:39.376Z,100868.38
2023-05-10T00:27:09.798Z,100863.98
2023-05-10T00:27:40.226Z,100866.46
2023-05-10T00:28:10.651Z,100864.16
2023-05-10T00:28:41.072Z,100862.86
2023-05-10T00:29:11.506Z,100865.18
2023-05-10T00:29:41.922Z,100865.20
2023-05-10T00:30:12.357Z,100860.96
2023-05-10T00:30:42.769Z,100857.05
2023-05-10T00:31:13.210Z,100861.70
2023-05-10T00:31:43.709Z,100856.69
2023-05-10T00:32:14.137Z,100859.77
2023-05-10T00:32:44.644Z,100857.72
2023-05-10T00:33:15.044Z,100855.11
2023-05-10T00:33:45.470Z,100854.87
2023-05-10T00:34:15.899Z,100857.70
2023-05-10T00:34:46.332Z,100853.75
2023-05-10T00:35:16.755Z,100853.47
2023-05-10T00:35:47.186Z,100854.23
2023-05-10T00:36:17.622Z,100853.08
2023-05-10T00:36:48.058Z,100854.41
2023-05-10T00:37:18.477Z,100855.05
2023-05-10T00:37:48.903Z,100850.45
2023-05-10T00:38:19.335Z,100851.58
2023-05-10T00:38:49.748Z,100856.72
2023-05-10T00:39:20.168Z,100851.12
2023-05-10T00:39:50.621Z,100854.22
2023-05-10T00:40:21.027Z,100850.91
2023-05-10T00:40:51.471Z,100857.20
2023-05-10T00:41:21.892Z,100854.55
2023-05-10T00:41:52.327Z,100852.86
2023-05-10T00:42:22.746Z,100847.53
2023-05-10T00:42:53.171Z,100849.95
2023-05-10T00:43:23.588Z,100852.62
2023-05-10T00:43:54.010Z,100854.55
2023-05-10T00:44:24.429Z,100854.87
2023-05-10T00:44:54.861Z,100852.41
2023-05-10T00:45:25.300Z,100854.55
2023-05-10T00:45:55.763Z,100854.33
2023-05-10T00:46:26.178Z,100854.41
2023-05-10T00:46:56.626Z,100851.27
2023-05-10T00:47:27.090Z,100850.48
2023-05-10T00:47:57.536Z,100848.65
2023-05-10T00:48:27.922Z,100851.16
2023-05-10T00:48:58.336Z,100847.30
2023-05-10T00:49:28.756Z,100849.30
2023-05-10T00:49:59.205Z,100846.59
2023-05-10T00:50:29.637Z,100849.86
2023-05-10T00:51:00.076Z,100848.03
2023-05-10T00:51:30.496Z,100850.28
2023-05-10T00:52:00.916Z,100848.42
2023-05-10T00:52:31.339Z,100845.58
2023-05-10T00:53:01.775Z,100846.30
2023-05-10T00:53:32.208Z,100850.67
2023-05-10T00:54:02.647Z,100847.10
2023-05-10T00:54:33.054Z,100845.46
2023-05-10T00:55:03.507Z,100844.28
2023-05-10T00:55:33.909Z,100842.41
2023-05-10T00:56:04.334Z,100846.16
2023-05-10T00:56:34.765Z,100847.37
2023-05-10T00:57:05.184Z,100844.94
2023-05-10T00:57:35.593Z,100844.08
2023-05-10T00:58:06.018Z,100845.42
2023-05-10T00:58:36.453Z,100844.01
2023-05-10T00:59:06.878Z,100841.36
2023-05-10T00:59:37.305Z,100842.43
2023-05-10T01:00:07.752Z,100839.14
2023-05-10T01:00:38.159Z,100840.77
2023-05-10T01:01:08.635Z,100835.64
2023-05-10T01:01:39.073Z,100836.34
2023-05-10T01:02:09.491Z,100842.27
2023-05-10T01:02:39.950Z,100836.61
2023-05-10T01:03:10.440Z,100836.98
2023-05-10T01:03:40.944Z,100836.64
2023-05-10T01:04:11.344Z,100837.94
2023-05-10T01:04:41.833Z,100842.35
2023-05-10T01:05:12.230Z,100840.66
2023-05-10T01:05:42.652Z,100836.49
2023-05-10T01:06:13.068Z,100836.86
2023-05-10T01:06:43.491Z,100835.98
2023-05-10T01:07:13.910Z,100838.12
2023-05-10T01:07:44.348Z,100835.84
2023-05-10T01:08:14.757Z,100833.39
2023-05-10T01:08:45.191Z,100837.08
2023-05-10T01:09:15.624Z,100834.42
2023-05-10T01:09:46.053Z,100830.59
2023-05-10T01:10:16.870Z,100835.31
2023-05-10T01:10:47.445Z,100831.48
2023-05-10T01:11:17.865Z,100833.12
2023-05-10T01:11:48.290Z,100836.08
2023-05-10T01:12:18.744Z,100832.62
2023-05-10T01:12:49.200Z,100832.14
2023-05-10T01:13:19.621Z,100826.08
2023-05-10T01:13:50.011Z,100829.59
2023-05-10T01:14:20.446Z,100830.59
2023-05-10T01:14:50.889Z,100831.83
2023-05-10T01:15:21.305Z,100829.88
2023-05-10T01:15:51.777Z,100830.33
2023-05-10T01:16:22.236Z,100827.43
2023-05-10T01:16:52.639Z,100829.34
2023-05-10T01:17:23.110Z,100828.84
2023-05-10T01:17:53.510Z,100824.14
2023-05-10T01:18:23.908Z,100825.69
2023-05-10T01:18:54.340Z,100824.86
2023-05-10T01:19:24.773Z,100828.48
2023-05-10T01:19:55.192Z,100830.05
2023-05-10T01:20:25.632Z,100829.33
2023-05-10T01:20:56.042Z,100827.33
2023-05-10T01:21:26.463Z,100825.45
2023-05-10T01:21:56.886Z,100827.68
2023-05-10T01:22:27.321Z,100822.00
2023-05-10T01:22:57.729Z,100821.26
2023-05-10T01:23:28.152Z,100825.88
2023-05-10T01:23:58.597Z,100824.91
2023-05-10T01:24:29.041Z,100825.14
2023-05-10T01:24:59.446Z,100824.28
2023-05-10T01:25:29.890Z,100822.98
2023-05-10T01:26:00.287Z,100820.70
2023-05-10T01:26:30.712Z,100818.70
2023-05-10T01:27:01.159Z,100817.60
2023-05-10T01:27:31.582Z,100819.17
2023-05-10T01:28:01.997Z,100820.19
2023-05-10T01:28:32.435Z,100817.51
2023-05-10T01:29:02.864Z,100822.20
2023-05-10T01:29:33.293Z,100820.34
2023-05-10T01:30:14.147Z,100819.87
2023-05-10T01:30:39.038Z,100825.75
2023-05-10T01:31:09.501Z,100824.06
2023-05-10T01:31:39.921Z,100820.94
2023-05-10T01:32:10.320Z,100825.34
2023-05-10T01:32:40.791Z,100819.08
2023-05-10T01:33:11.186Z,100820.20
2023-05-10T01:33:41.611Z,100818.28
2023-05-10T01:34:12.032Z,100823.61
2023-05-10T01:34:42.461Z,100822.88
2023-05-10T01:35:12.886Z,100821.03
2023-05-10T01:35:43.318Z,100820.69
2023-05-10T01:36:13.744Z,100821.41
2023-05-10T01:36:44.165Z,100819.08
2023-05-10T01:37:14.581Z,100817.05
2023-05-10T01:37:45.002Z,100817.70
2023-05-10T01:38:15.440Z,100821.36
2023-05-10T01:38:45.869Z,100818.16
2023-05-10T01:39:16.282Z,100821.02
2023-05-10T01:39:46.716Z,100817.51
2023-05-10T01:40:17.300Z,100819.41
2023-05-10T01:40:47.800Z,100819.39
2023-05-10T01:41:18.223Z,100814.27
2023-05-10T01:41:48.629Z,100815.84
2023-05-10T01:42:19.073Z,100819.33
2023-05-10T01:42:49.478Z,100813.42
2023-05-10T01:43:19.911Z,100809.27
2023-05-10T01:43:50.349Z,100814.41
2023-05-10T01:44:20.764Z,100814.96
2023-05-10T01:44:51.195Z,100811.64
2023-05-10T01:45:21.617Z,100814.16
2023-05-10T01:45:52.036Z,100816.80
2023-05-10T01:46:22.481Z,100818.38
2023-05-10T01:46:52.935Z,100815.84
2023-05-10T01:47:23.307Z,100815.80
2023-05-10T01:47:53.784Z,100816.12
2023-05-10T01:48:24.181Z,100814.66
2023-05-10T01:48:54.610Z,100813.17
2023-05-10T01:49:25.027Z,100813.89
2023-05-10T01:49:55.457Z,100813.16
2023-05-10T01:50:25.878Z,100815.59
2023-05-10T01:50:56.292Z,100817.98
2023-05-10T01:51:26.720Z,100818.51
2023-05-10T01:51:57.135Z,100815.16
2023-05-10T01:52:27.579Z,100811.00
2023-05-10T01:52:58.012Z,100814.66
2023-05-10T01:53:28.434Z,100809.62
2023-05-10T01:53:58.852Z,100810.71
2023-05-10T01:54:29.273Z,100813.30
2023-05-10T01:54:59.697Z,100811.81
2023-05-10T01:55:30.116Z,100811.92
2023-05-10T01:56:00.566Z,100808.39
2023-05-10T01:56:30.987Z,100809.48
2023-05-10T01:57:01.408Z,100812.09
2023-05-10T01:57:31.854Z,100809.45
2023-05-10T01:58:02.274Z,100811.67
2023-05-10T01:58:32.693Z,100809.27
2023-05-10T01:59:03.117Z,100807.72
2023-05-10T01:59:33.563Z,100806.30
2023-05-10T02:00:03.982Z,100807.84
2023-05-10T02:00:34.456Z,100804.99
2023-05-10T02:01:04.860Z,100810.47
2023-05-10T02:01:35.263Z,100808.70
2023-05-10T02:02:05.698Z,100814.06
2023-05-10T02:02:36.190Z,100805.19
2023-05-10T02:03:06.745Z,100809.04
2023-05-10T02:03:37.179Z,100811.75
2023-05-10T02:04:07.664Z,100808.20
2023-05-10T02:04:38.115Z,100809.94
2023-05-10T02:05:08.554Z,100808.53
2023-05-10T02:05:38.963Z,100807.12
2023-05-10T02:06:09.446Z,100807.15
2023-05-10T02:06:39.892Z,100810.75
2023-05-10T02:07:10.306Z,100805.61
2023-05-10T02:07:40.745Z,100806.59
2023-05-10T02:08:11.157Z,100809.97
2023-05-10T02:08:41.579Z,100811.84
2023-05-10T02:09:12.012Z,100808.84
2023-05-10T02:09:42.440Z,100806.86
2023-05-10T02:10:12.924Z,100811.75
2023-05-10T02:10:43.385Z,100808.61
2023-05-10T02:11:13.861Z,100814.11
2023-05-10T02:11:44.241Z,100809.84
2023-05-10T02:12:14.672Z,100812.12
2023-05-10T02:12:45.147Z,100810.69
2023-05-10T02:13:15.569Z,100808.95
2023-05-10T02:13:45.954Z,100811.62
2023-05-10T02:14:16.439Z,100811.08
2023-05-10T02:14:46.807Z,100816.57
2023-05-10T02:15:17.233Z,100810.61
2023-05-10T02:15:47.648Z,100808.80
2023-05-10T02:16:18.120Z,100809.92
2023-05-10T02:16:48.557Z,100809.45
2023-05-10T02:17:18.983Z,100809.32
2023-05-10T02:17:49.453Z,100808.08
2023-05-10T02:18:19.880Z,100808.14
2023-05-10T02:18:50.280Z,100807.40
2023-05-10T02:19:20.699Z,100809.61
2023-05-10T02:19:51.127Z,100808.28
2023-05-10T02:20:21.580Z,100808.22
2023-05-10T02:20:51.989Z,100811.38
2023-05-10T02:21:22.432Z,100809.48
2023-05-10T02:21:52.860Z,100806.08
2023-05-10T02:22:23.278Z,100806.72
2023-05-10T02:22:53.726Z,100802.31
2023-05-10T02:23:24.142Z,100805.20
2023-05-10T02:23:54.562Z,100804.39
2023-05-10T02:24:24.982Z,100805.57
2023-05-10T02:24:55.404Z,100802.64
2023-05-10T02:25:25.856Z,100801.77
2023-05-10T02:25:56.270Z,100800.66
2023-05-10T02:26:26.724Z,100800.88
2023-05-10T02:26:57.125Z,100799.39
2023-05-10T02:27:27.545Z,100799.69
2023-05-10T02:27:58.158Z,100795.67
2023-05-10T02:28:28.585Z,100796.97
2023-05-10T02:28:59.005Z,100796.77
2023-05-10T02:29:29.429Z,100796.02
2023-05-10T02:29:59.855Z,100798.06
2023-05-10T02:30:30.280Z,100800.52
2023-05-10T02:31:00.725Z,100801.67
2023-05-10T02:31:31.492Z,100800.80
2023-05-10T02:32:01.961Z,100801.05
2023-05-10T02:32:32.414Z,100802.80
2023-05-10T02:33:02.858Z,100800.04
2023-05-10T02:33:33.243Z,100801.50
2023-05-10T02:34:03.709Z,100799.80
2023-05-10T02:34:34.131Z,100802.47
2023-05-10T02:35:04.850Z,100797.66
2023-05-10T02:35:35.264Z,100797.70
2023-05-10T02:36:05.699Z,100799.81
2023-05-10T02:36:36.115Z,100799.53
2023-05-10T02:37:06.537Z,100797.16
2023-05-10T02:37:36.963Z,100795.90
2023-05-10T02:38:07.392Z,100795.15
2023-05-10T02:38:37.855Z,100797.03
2023-05-10T02:39:08.270Z,100798.60
2023-05-10T02:39:38.679Z,100800.86
2023-05-10T02:40:09.107Z,100799.48
2023-05-10T02:40:39.539Z,100798.73
2023-05-10T02:41:09.996Z,100798.75
2023-05-10T02:41:40.430Z,100800.04
2023-05-10T02:42:10.830Z,100801.41
2023-05-10T02:42:41.255Z,100799.66
2023-05-10T02:43:11.687Z,100798.01
2023-05-10T02:43:42.113Z,100799.75
2023-05-10T02:44:12.539Z,100804.56
2023-05-10T02:44:42.956Z,100797.59
2023-05-10T02:45:13.380Z,100800.20
2023-05-10T02:45:43.862Z,100801.30
2023-05-10T02:46:14.283Z,100795.64
2023-05-10T02:46:44.681Z,100795.78
2023-05-10T02:47:15.103Z,100796.72
2023-05-10T02:47:45.598Z,100794.67
2023-05-10T02:48:16.057Z,100797.90
2023-05-10T02:48:46.474Z,100797.81
2023-05-10T02:49:16.896Z,100796.34
2023-05-10T02:49:47.313Z,100796.69
2023-05-10T02:50:18.086Z,100796.88
2023-05-10T02:50:48.718Z,100796.31
2023-05-10T02:51:19.197Z,100793.59
2023-05-10T02:51:49.597Z,100792.52
2023-05-10T02:52:20.020Z,100800.05
2023-05-10T02:52:50.442Z,100798.76
2023-05-10T02:53:20.865Z,100796.12
2023-05-10T02:53:51.284Z,100795.25
2023-05-10T02:54:21.715Z,100797.50
2023-05-10T02:54:52.131Z,100800.73
2023-05-10T02:55:22.573Z,100797.56
2023-05-10T02:55:52.991Z,100797.25
2023-05-10T02:56:23.415Z,100794.97
2023-05-10T02:56:53.855Z,100794.77
2023-05-10T02:57:24.266Z,100796.83
2023-05-10T02:57:54.682Z,100794.09
2023-05-10T02:58:25.107Z,100796.91
2023-05-10T02:58:55.529Z,100795.39
2023-05-10T02:59:25.949Z,100799.05
2023-05-10T02:59:56.390Z,100791.94
2023-05-10T03:00:26.815Z,100793.93
2023-05-10T03:00:57.244Z,100797.64
2023-05-10T03:01:27.739Z,100794.27
2023-05-10T03:01:58.145Z,100796.41
2023-05-10T03:02:28.561Z,100797.25
2023-05-10T03:02:59.006Z,100797.41
2023-05-10T03:03:29.401Z,100797.77
2023-05-10T03:03:59.821Z,100795.92
2023-05-10T03:04:30.298Z,100796.81
2023-05-10T03:05:00.806Z,100799.50
2023-05-10T03:05:31.187Z,100796.98
2023-05-10T03:06:01.613Z,100796.98
2023-05-10T03:06:32.032Z,100796.47
2023-05-10T03:07:02.478Z,100795.39
2023-05-10T03:07:32.902Z,100798.76
2023-05-10T03:08:03.333Z,100798.06
2023-05-10T03:08:33.757Z,100796.91
2023-05-10T03:09:04.190Z,100797.87
2023-05-10T03:09:34.627Z,100798.31
2023-05-10T03:10:05.067Z,100795.53
2023-05-10T03:10:35.483Z,100794.48
2023-05-10T03:11:05.914Z,100795.28
2023-05-10T03:11:36.340Z,100796.52
2023-05-10T03:12:06.781Z,100795.00
2023-05-10T03:12:37.190Z,100794.24
2023-05-10T03:13:07.686Z,100795.40
2023-05-10T03:13:38.065Z,100798.55
2023-05-10T03:14:08.492Z,100791.67
2023-05-10T03:14:38.953Z,100794.45
2023-05-10T03:15:09.427Z,100791.66
2023-05-10T03:15:39.880Z,100792.73
2023-05-10T03:16:10.404Z,100791.22
2023-05-10T03:16:41.642Z,100790.80
2023-05-10T03:17:13.743Z,100795.09
2023-05-10T03:17:44.208Z,100791.15
2023-05-10T03:18:14.604Z,100789.60
2023-05-10T03:18:45.022Z,100790.42
2023-05-10T03:19:15.469Z,100788.98
2023-05-10T03:19:45.898Z,100789.15
2023-05-10T03:20:16.654Z,100785.97
2023-05-10T03:20:47.194Z,100788.58
2023-05-10T03:21:17.615Z,100786.44
2023-05-10T03:21:48.046Z,100789.42
2023-05-10T03:22:18.470Z,100791.00
2023-05-10T03:22:48.892Z,100789.41
2023-05-10T03:23:19.318Z,100789.48
2023-05-10T03:23:49.737Z,100791.15
2023-05-10T03:24:20.187Z,100787.62
2023-05-10T03:24:50.600Z,100790.76
2023-05-10T03:25:21.033Z,100793.12
2023-05-10T03:25:51.462Z,100785.84
2023-05-10T03:26:21.881Z,100788.80
2023-05-10T03:26:52.312Z,100786.92
2023-05-10T03:27:22.752Z,100789.65
2023-05-10T03:27:53.157Z,100787.39
2023-05-10T03:28:23.586Z,100787.23
2023-05-10T03:28:54.019Z,100781.91
2023-05-10T03:29:24.445Z,100785.12
2023-05-10T03:29:54.866Z,100783.54
2023-05-10T03:30:25.295Z,100783.79
2023-05-10T03:30:55.714Z,100781.06
2023-05-10T03:31:26.166Z,100783.75
2023-05-10T03:31:56.645Z,100783.19
2023-05-10T03:32:27.074Z,100783.60
2023-05-10T03:32:57.516Z,100785.42
2023-05-10T03:33:27.922Z,100783.16
2023-05-10T03:33:58.366Z,100786.54
2023-05-10T03:34:28.794Z,100783.67
2023-05-10T03:34:59.215Z,100789.42
2023-05-10T03:35:29.635Z,100786.09
2023-05-10T03:36:00.061Z,100786.86
2023-05-10T03:36:30.482Z,100787.07
2023-05-10T03:37:00.899Z,100786.28
2023-05-10T03:37:31.346Z,100785.22
2023-05-10T03:38:01.754Z,100788.50
2023-05-10T03:38:32.184Z,100783.23
2023-05-10T03:39:02.618Z,100784.52
2023-05-10T03:39:33.034Z,100783.80
2023-05-10T03:40:03.480Z,100783.40
2023-05-10T03:40:33.879Z,100784.83
2023-05-10T03:41:04.309Z,100787.25
2023-05-10T03:41:34.727Z,100786.56
2023-05-10T03:42:05.160Z,100785.22
2023-05-10T03:42:35.607Z,100787.22
2023-05-10T03:43:06.013Z,100786.38
2023-05-10T03:43:36.476Z,100786.18
2023-05-10T03:44:06.882Z,100786.88
2023-05-10T03:44:37.329Z,100789.66
2023-05-10T03:45:07.742Z,100784.84
2023-05-10T03:45:38.169Z,100785.92
2023-05-10T03:46:08.864Z,100782.55
2023-05-10T03:46:39.343Z,100783.12
2023-05-10T03:47:09.758Z,100784.81
2023-05-10T03:47:40.248Z,100784.14
2023-05-10T03:48:10.697Z,100783.64
2023-05-10T03:48:41.111Z,100782.79
2023-05-10T03:49:11.537Z,100781.83
2023-05-10T03:49:41.983Z,100781.02
2023-05-10T03:50:12.423Z,100781.33
2023-05-10T03:50:42.840Z,100781.42
2023-05-10T03:51:13.270Z,100781.05
2023-05-10T03:51:43.682Z,100776.78
2023-05-10T03:52:14.103Z,100777.36
2023-05-10T03:52:44.530Z,100780.02
2023-05-10T03:53:14.987Z,100782.09
2023-05-10T03:53:45.396Z,100777.66
2023-05-10T03:54:15.838Z,100778.13
2023-05-10T03:54:46.255Z,100777.31
2023-05-10T03:55:16.693Z,100781.97
2023-05-10T03:55:47.096Z,100777.70
2023-05-10T03:56:17.530Z,100780.67
2023-05-10T03:56:47.940Z,100775.91
2023-05-10T03:57:18.369Z,100774.81
2023-05-10T03:57:48.814Z,100778.30
2023-05-10T03:58:19.228Z,100774.45
2023-05-10T03:58:49.663Z,100776.08
2023-05-10T03:59:20.088Z,100772.09
2023-05-10T03:59:50.512Z,100782.71
2023-05-10T04:00:20.925Z,100777.23
2023-05-10T04:00:51.358Z,100778.50
2023-05-10T04:01:21.806Z,100776.92
2023-05-10T04:01:52.244Z,100781.14
2023-05-10T04:02:22.687Z,100779.34
2023-05-10T04:02:53.272Z,100771.11
2023-05-10T04:03:23.794Z,100774.68
2023-05-10T04:03:54.384Z,100777.42
2023-05-10T04:04:24.793Z,100780.45
2023-05-10T04:04:55.209Z,100777.64
2023-05-10T04:05:25.631Z,100777.78
2023-05-10T04:05:56.097Z,100777.87
2023-05-10T04:06:26.547Z,100779.89
2023-05-10T04:06:57.022Z,100780.62
2023-05-10T04:07:27.451Z,100771.50
2023-05-10T04:07:57.878Z,100773.62
2023-05-10T04:08:28.312Z,100776.16
2023-05-10T04:08:58.725Z,100775.08
2023-05-10T04:09:29.147Z,100770.26
2023-05-10T04:09:59.582Z,100774.62
2023-05-10T04:10:29.997Z,100772.20
2023-05-10T04:11:00.412Z,100773.86
2023-05-10T04:11:30.846Z,100775.47
2023-05-10T04:12:01.266Z,100777.09
2023-05-10T04:12:31.697Z,100775.42
2023-05-10T04:13:02.279Z,100774.28
2023-05-10T04:13:32.676Z,100772.20
2023-05-10T04:14:03.112Z,100770.77
2023-05-10T04:14:33.513Z,100770.72
2023-05-10T04:15:03.953Z,100776.25
2023-05-10T04:15:34.375Z,100771.86
2023-05-10T04:16:04.817Z,100772.18
2023-05-10T04:16:35.245Z,100771.16
2023-05-10T04:17:05.723Z,100768.90
2023-05-10T04:17:36.133Z,100771.06
2023-05-10T04:18:08.708Z,100772.12
2023-05-10T04:18:39.317Z,100771.27
2023-05-10T04:19:09.754Z,100772.00
2023-05-10T04:19:40.171Z,100770.77
2023-05-10T04:20:10.642Z,100773.39
2023-05-10T04:20:41.023Z,100771.03
2023-05-10T04:21:11.441Z,100771.70
2023-05-10T04:21:41.883Z,100766.67
2023-05-10T04:22:12.321Z,100774.58
2023-05-10T04:22:42.744Z,100770.80
2023-05-10T04:23:13.161Z,100769.22
2023-05-10T04:23:43.581Z,100767.92
2023-05-10T04:24:14.021Z,100770.31
2023-05-10T04:24:44.436Z,100767.73
2023-05-10T04:25:14.858Z,100766.55
2023-05-10T04:25:45.281Z,100770.67
2023-05-10T04:26:15.712Z,100768.48
2023-05-10T04:26:46.150Z,100769.98
2023-05-10T04:27:16.573Z,100766.86
2023-05-10T04:27:46.990Z,100772.01
2023-05-10T04:28:17.434Z,100771.25
2023-05-10T04:28:47.858Z,100771.10
2023-05-10T04:29:18.260Z,100767.86
2023-05-10T04:29:48.686Z,100769.77
2023-05-10T04:30:19.223Z,100769.09
2023-05-10T04:30:49.657Z,100768.73
2023-05-10T04:31:20.233Z,100769.44
2023-05-10T04:31:50.680Z,100767.58
2023-05-10T04:32:21.250Z,100764.97
2023-05-10T04:32:51.799Z,100766.66
2023-05-10T04:33:22.196Z,100768.05
2023-05-10T04:33:52.613Z,100771.88
2023-05-10T04:34:23.038Z,100766.12
2023-05-10T04:34:53.467Z,100763.54
2023-05-10T04:35:23.897Z,100762.77
2023-05-10T04:35:54.317Z,100763.95
2023-05-10T04:36:24.768Z,100762.87
2023-05-10T04:36:55.210Z,100762.28
2023-05-10T04:37:25.639Z,100761.47
2023-05-10T04:37:56.057Z,100763.44
2023-05-10T04:38:26.480Z,100761.75
2023-05-10T04:38:56.900Z,100766.62
2023-05-10T04:39:27.321Z,100765.36
2023-05-10T04:39:57.750Z,100764.77
2023-05-10T04:40:28.189Z,100760.55
2023-05-10T04:40:58.635Z,100763.61
2023-05-10T04:41:29.071Z,100761.53
2023-05-10T04:41:59.486Z,100758.71
2023-05-10T04:42:29.917Z,100757.09
2023-05-10T04:43:00.346Z,100758.19
2023-05-10T04:43:30.792Z,100760.29
2023-05-10T04:44:01.214Z,100759.78
2023-05-10T04:44:31.641Z,100760.29
2023-05-10T04:45:02.064Z,100761.70
2023-05-10T04:45:32.475Z,100758.44
2023-05-10T04:46:02.945Z,100760.17
2023-05-10T04:46:33.420Z,100761.42
2023-05-10T04:47:03.807Z,100764.94
2023-05-10T04:47:34.251Z,100761.23
2023-05-10T04:48:04.745Z,100759.88
2023-05-10T04:48:35.151Z,100758.64
2023-05-10T04:49:05.581Z,100758.30
2023-05-10T04:49:36.000Z,100754.81
2023-05-10T04:50:06.443Z,100759.03
2023-05-10T04:50:36.863Z,100757.91
2023-05-10T04:51:07.305Z,100758.72
2023-05-10T04:51:37.721Z,100757.09
2023-05-10T04:52:08.145Z,100756.07
2023-05-10T04:52:38.574Z,100758.42
2023-05-10T04:53:09.001Z,100754.52
2023-05-10T04:53:39.427Z,100756.14
2023-05-10T04:54:09.860Z,100761.64
2023-05-10T04:54:40.269Z,100758.67
2023-05-10T04:55:10.685Z,100761.21
2023-05-10T04:55:41.134Z,100760.84
2023-05-10T04:56:11.554Z,100756.09
2023-05-10T04:56:41.987Z,100759.80
2023-05-10T04:57:12.450Z,100757.78
2023-05-10T04:57:42.876Z,100757.45
2023-05-10T04:58:13.297Z,100761.69
2023-05-10T04:58:43.770Z,100761.38
2023-05-10T04:59:14.148Z,100762.33
2023-05-10T04:59:44.587Z,100756.97
2023-05-10T05:00:15.283Z,100759.16
2023-05-10T05:00:45.923Z,100760.28
2023-05-10T05:01:16.368Z,100761.30
2023-05-10T05:01:46.791Z,100758.14
2023-05-10T05:02:17.198Z,100759.89
2023-05-10T05:02:47.688Z,100764.84
2023-05-10T05:03:18.263Z,100761.07
2023-05-10T05:03:48.841Z,100762.76
2023-05-10T05:04:19.322Z,100766.97
2023-05-10T05:04:49.738Z,100769.22
2023-05-10T05:05:20.166Z,100766.19
2023-05-10T05:05:50.590Z,100772.18
2023-05-10T05:06:21.008Z,100772.58
2023-05-10T05:06:53.734Z,100767.63
2023-05-10T05:07:24.395Z,100765.69
2023-05-10T05:07:54.819Z,100768.97
2023-05-10T05:08:25.244Z,100769.06
2023-05-10T05:08:55.683Z,100768.59
2023-05-10T05:09:26.106Z,100773.48
2023-05-10T05:09:56.590Z,100767.75
2023-05-10T05:10:27.014Z,100768.48
2023-05-10T05:10:57.437Z,100771.32
2023-05-10T05:11:27.860Z,100769.16
2023-05-10T05:11:58.312Z,100767.08
2023-05-10T05:12:28.744Z,100767.55
2023-05-10T05:12:59.209Z,100761.67
2023-05-10T05:13:29.701Z,100761.34
2023-05-10T05:14:00.309Z,100765.19
2023-05-10T05:14:30.761Z,100766.45
2023-05-10T05:15:01.194Z,100759.32
2023-05-10T05:15:31.633Z,100765.55
2023-05-10T05:16:02.075Z,100767.08
2023-05-10T05:16:32.497Z,100765.05
2023-05-10T05:17:02.944Z,100764.16
2023-05-10T05:17:33.414Z,100764.66
2023-05-10T05:18:03.880Z,100765.50
2023-05-10T05:18:34.272Z,100758.92
2023-05-10T05:19:04.697Z,100757.49
2023-05-10T05:19:35.122Z,100761.41
2023-05-10T05:20:05.554Z,100765.26
2023-05-10T05:20:35.975Z,100764.07
2023-05-10T05:21:06.399Z,100766.97
2023-05-10T05:21:36.819Z,100764.75
2023-05-10T05:22:07.242Z,100757.84
2023-05-10T05:22:37.687Z,100759.83
2023-05-10T05:23:08.100Z,100762.05
2023-05-10T05:23:38.533Z,100764.47
2023-05-10T05:24:08.960Z,100759.43
2023-05-10T05:24:39.447Z,100759.23
2023-05-10T05:25:09.869Z,100759.94
2023-05-10T05:25:40.297Z,100759.27
2023-05-10T05:26:10.723Z,100758.78
2023-05-10T05:26:41.141Z,100757.94
2023-05-10T05:27:11.564Z,100758.95
2023-05-10T05:27:42.002Z,100759.41
2023-05-10T05:28:12.417Z,100759.02
2023-05-10T05:28:42.851Z,100757.98
2023-05-10T05:29:13.282Z,100755.61
2023-05-10T05:29:43.708Z,100757.12
2023-05-10T05:30:14.272Z,100751.25
2023-05-10T05:30:44.704Z,100759.10
2023-05-10T05:31:15.169Z,100752.16
2023-05-10T05:31:45.594Z,100749.80
2023-05-10T05:32:16.053Z,100754.33
2023-05-10T05:32:46.529Z,100752.27
2023-05-10T05:33:16.911Z,100749.99
2023-05-10T05:33:47.336Z,100746.45
2023-05-10T05:34:17.778Z,100746.80
2023-05-10T05:34:48.219Z,100744.77
2023-05-10T05:35:18.812Z,100744.43
2023-05-10T05:35:49.312Z,100748.17
2023-05-10T05:36:19.741Z,100746.38
2023-05-10T05:36:50.180Z,100746.17
2023-05-10T05:37:20.600Z,100741.11
2023-05-10T05:37:51.020Z,100749.94
2023-05-10T05:38:21.442Z,100747.58
2023-05-10T05:38:51.867Z,100749.52
2023-05-10T05:39:22.341Z,100742.97
2023-05-10T05:39:52.775Z,100742.75
2023-05-10T05:40:23.202Z,100743.73
2023-05-10T05:40:53.625Z,100743.91
2023-05-10T05:41:24.056Z,100743.28
2023-05-10T05:41:54.497Z,100745.98
2023-05-10T05:42:24.912Z,100744.07
2023-05-10T05:42:55.349Z,100741.88
2023-05-10T05:43:25.785Z,100745.78
2023-05-10T05:43:56.204Z,100742.75
2023-05-10T05:44:26.639Z,100744.58
2023-05-10T05:44:57.046Z,100739.01
2023-05-10T05:45:27.471Z,100744.91
2023-05-10T05:45:57.927Z,100740.20
2023-05-10T05:46:28.379Z,100744.33
2023-05-10T05:46:58.766Z,100740.45
2023-05-10T05:47:29.234Z,100742.47